Impacts TAF Board INFO
IDs:

KCLE - Cleveland/Hopkins In, OH, US

Issued at 1141 UTC 07 Dec 2016
Updated at 1425 UTC 07 Dec 2016
Potential Impact None Slight Moderate High
Time1351Z 07/15Z 07/16Z 07/17Z 07/18Z 07/19Z 07/20Z 07/21Z 07/22Z 07/23Z 08/00Z 08/01Z 08/02Z 08/03Z
Type OBS PRVL
  [TEMP]  
PRVL PRVL PRVL PRVL PRVL PRVL PRVL PRVL PRVL PRVL PRVL PRVL
VIS 10 >6 >6 >6 >6 >6 >6 >6 >6 >6 >6 >6 >6 >6
CIG 18 18
  [25]  
150 150 150 150 150 100 100 100 100 100 100 25
Cover OVC OVC
  [OVC]  
BKN BKN BKN BKN BKN OVC OVC OVC OVC OVC OVC OVC
FltCat MVFR MVFR
  [MVFR]  
VFR VFR VFR VFR VFR VFR VFR VFR VFR VFR VFR MVFR
WX -- --
  [--]  
-- -- -- -- -- -- -- -- -- -- -- --
WDir 240 240
[240]
240 240 240 240 240 240 240 240 240 240 240 240
WSpd 12 12
  [12]  
12 12 12 12 12 12 12 12 12 12 12 10
WGst -- 18
  [18]  
18 18 18 18 18 18 18 18 18 18 18 --

Raw TAF
KCLE 071141Z 0712/0818 24012G18KT P6SM OVC018
  TEMPO 0712/0716 SCT018 OVC025
  FM071600 24012G18KT P6SM SCT025 BKN150
  FM072100 24012G18KT P6SM SCT035 OVC100
  FM080300 24010KT P6SM OVC025


Raw METAR
KCLE 071351Z 24012KT 10SM OVC018 M01/M05 A3009 RMK AO2 SLP197 T10061050
KCLE 071251Z 26010KT 10SM OVC020 M01/M05 A3007 RMK AO2 SLP188 T10061050
KCLE 071151Z 24012KT 10SM BKN018 00/M04 A3006 RMK AO2 SLP186 70049 T00001044 10039 20000 52022

METAR Board
Radar Display
Forecast Discussion